DAUB

Biskra Airport

Biskra, Algeria
TAF DAUB 241700Z 2418/2518 16012KT CAVOK PROB30 TEMPO 2418/2420 FEW033TCU BECMG 2420/2422 24010KT BECMG 2508/2510 14014KT PROB30 TEMPO 2512/2518 FEW033TCU
Issued Valid From Valid To
Sep-24 @ 17:00 UTC
(2 hours ago)
Sep-24 @ 18:00 UTC
(an hour ago)
Sep-25 @ 18:00 UTC
(in 23 hours)
Sep-24 @ 18:00 to Sep-24 @ 20:00
TAF DAUB 241700Z 2418/2518 16012KT CAVOK
Wind Visibility Clouds Conditions
160° at 12 knots 10,000+ meters
  • No significant clouds
Temporary  (Probability 30%) Sep-24 @ 18:00 to Sep-24 @ 20:00
PROB30 TEMPO 2418/2420 FEW033TCU
Clouds
  • Few at 3,300' AGL
Becoming Sep-24 @ 20:00 to Sep-25 @ 08:00
BECMG 2420/2422 24010KT
Wind Visibility Clouds Conditions
240° at 10 knots 10,000+ meters
  • No significant clouds
Becoming Sep-25 @ 08:00 to Sep-25 @ 18:00
BECMG 2508/2510 14014KT
Wind Visibility Clouds Conditions
140° at 14 knots 10,000+ meters
  • No significant clouds
Temporary  (Probability 30%) Sep-25 @ 12:00 to Sep-25 @ 18:00
PROB30 TEMPO 2512/2518 FEW033TCU
Clouds
  • Few at 3,300' AGL
TAF DAUB 241700Z 2418/2518 16012KT CAVOK PROB30 TEMPO 2418/2420 FEW033TCU BECMG 2420/2422 24010KT BECMG 2508/2510 14014KT PROB30 TEMPO 2512/2518 FEW033TCU
Issued Sep-24 @ 17:00 UTC
(2 hours ago)
Valid From Sep-24 @ 18:00 UTC
(an hour ago)
Valid To Sep-25 @ 18:00 UTC
(in 23 hours)
Sep-24 @ 18:00 - Sep-24 @ 20:00
Wind Visibility
160° at 12 knots 10,000+ meters
Clouds
  • No significant clouds
Conditions
Probability 30% Temporary Sep-24 @ 18:00 - Sep-24 @ 20:00
Clouds
  • Few at 3,300' AGL
Becoming Sep-24 @ 20:00 - Sep-25 @ 08:00
Wind Visibility
240° at 10 knots 10,000+ meters
Clouds
  • No significant clouds
Conditions
Becoming Sep-25 @ 08:00 - Sep-25 @ 18:00
Wind Visibility
140° at 14 knots 10,000+ meters
Clouds
  • No significant clouds
Conditions
Probability 30% Temporary Sep-25 @ 12:00 - Sep-25 @ 18:00
Clouds
  • Few at 3,300' AGL